HAZ2611 ZSHC-ZPPP
Flight info
| Callsign | HAZ2611 |
|---|---|
| Flight time | 2h 55m |
| Altitude | 36100 |
| Route | NIVIK8D NIVIK W135 DOGVI W545 VEMEX W73 MADUK W51 LEGIV W164 ADGOL W50 XSH W80 IDGAG A581 QNX W136 XISLI XIS1L |
| Aircraft | A339/H-SADE1E2E3GHIJ3J5M1P2RWXY/LB2D1 |
Departure
| Time | 2026-05-04 05:02 |
|---|---|
| Airport | Hangzhou Xiaoshan International Airport (ZSHC) |
Arrival
| Time | 2026-05-04 07:58 |
|---|---|
| Airport | Kunming Changshui International Airport (ZPPP) |
| Time | Latitude | Longitude | Altitude | Speed | Heading |
|---|---|---|---|---|---|
| 2026-05-04 04:47 | 30.24123 | 120.42635 | 37 ft | 0 kts | 143° |
| 2026-05-04 04:53 | 30.24124 | 120.42633 | 37 ft | 1 kts | 143° |
| 2026-05-04 04:53 | 30.24136 | 120.42623 | 37 ft | 2 kts | 143° |
| 2026-05-04 04:53 | 30.24148 | 120.42612 | 37 ft | 2 kts | 143° |
| 2026-05-04 04:54 | 30.24161 | 120.42602 | 37 ft | 2 kts | 143° |
| 2026-05-04 04:54 | 30.24172 | 120.42592 | 37 ft | 2 kts | 143° |
| 2026-05-04 04:54 | 30.24180 | 120.42585 | 37 ft | 2 kts | 143° |
| 2026-05-04 04:54 | 30.24190 | 120.42573 | 37 ft | 2 kts | 111° |
| 2026-05-04 04:55 | 30.24193 | 120.42556 | 37 ft | 2 kts | 84° |
| 2026-05-04 04:55 | 30.24190 | 120.42543 | 37 ft | 0 kts | 63° |
| 2026-05-04 04:55 | 30.24188 | 120.42538 | 37 ft | 0 kts | 63° |
| 2026-05-04 04:56 | 30.24190 | 120.42542 | 37 ft | 3 kts | 64° |
| 2026-05-04 04:57 | 30.24224 | 120.42620 | 37 ft | 15 kts | 62° |
| 2026-05-04 04:57 | 30.24275 | 120.42736 | 37 ft | 16 kts | 64° |
| 2026-05-04 04:57 | 30.24333 | 120.42799 | 37 ft | 9 kts | 359° |
| 2026-05-04 04:57 | 30.24404 | 120.42767 | 37 ft | 12 kts | 332° |
| 2026-05-04 04:58 | 30.24471 | 120.42759 | 37 ft | 8 kts | 35° |
| 2026-05-04 04:58 | 30.24513 | 120.42828 | 37 ft | 12 kts | 63° |
| 2026-05-04 04:58 | 30.24558 | 120.42929 | 37 ft | 15 kts | 63° |
| 2026-05-04 04:58 | 30.24613 | 120.43053 | 37 ft | 18 kts | 64° |
| 2026-05-04 04:59 | 30.24673 | 120.43188 | 37 ft | 18 kts | 63° |
| 2026-05-04 04:59 | 30.24733 | 120.43325 | 37 ft | 19 kts | 63° |
| 2026-05-04 04:59 | 30.24795 | 120.43467 | 37 ft | 19 kts | 62° |
| 2026-05-04 04:59 | 30.24858 | 120.43608 | 37 ft | 20 kts | 63° |
| 2026-05-04 05:00 | 30.24923 | 120.43755 | 37 ft | 20 kts | 63° |
| 2026-05-04 05:00 | 30.24985 | 120.43897 | 37 ft | 19 kts | 64° |
| 2026-05-04 05:00 | 30.25112 | 120.44013 | 37 ft | 10 kts | 329° |
| 2026-05-04 05:01 | 30.25176 | 120.43977 | 37 ft | 9 kts | 329° |
| 2026-05-04 05:01 | 30.25197 | 120.43935 | 37 ft | 3 kts | 251° |
| 2026-05-04 05:01 | 30.25174 | 120.43884 | 37 ft | 21 kts | 243° |
| 2026-05-04 05:01 | 30.25000 | 120.43501 | 37 ft | 84 kts | 244° |
| 2026-05-04 05:02 | 30.24650 | 120.42704 | 37 ft | 136 kts | 243° |
| 2026-05-04 05:02 | 30.24141 | 120.41570 | 95 ft | 174 kts | 244° |
| 2026-05-04 05:02 | 30.23597 | 120.40322 | 609 ft | 174 kts | 244° |
| 2026-05-04 05:02 | 30.23041 | 120.39074 | 1189 ft | 175 kts | 242° |
| 2026-05-04 05:03 | 30.22487 | 120.37837 | 1731 ft | 176 kts | 242° |
| 2026-05-04 05:03 | 30.21922 | 120.36578 | 2269 ft | 178 kts | 242° |
| 2026-05-04 05:04 | 30.20188 | 120.32700 | 3483 ft | 193 kts | 242° |
| 2026-05-04 05:04 | 30.19554 | 120.31286 | 3771 ft | 205 kts | 243° |
| 2026-05-04 05:04 | 30.18879 | 120.29769 | 4037 ft | 220 kts | 243° |
| 2026-05-04 05:06 | 30.17418 | 120.16939 | 7436 ft | 269 kts | 330° |
| 2026-05-04 05:06 | 30.19049 | 120.15938 | 8167 ft | 269 kts | 332° |
| 2026-05-04 05:06 | 30.20716 | 120.14925 | 8874 ft | 270 kts | 332° |
| 2026-05-04 05:07 | 30.22358 | 120.13910 | 9573 ft | 271 kts | 331° |
| 2026-05-04 05:07 | 30.24023 | 120.12874 | 10289 ft | 272 kts | 332° |
| 2026-05-04 05:07 | 30.25707 | 120.11816 | 10668 ft | 285 kts | 331° |
| 2026-05-04 05:09 | 30.41945 | 120.01553 | 14560 ft | 357 kts | 330° |
| 2026-05-04 05:09 | 30.44118 | 120.00178 | 15195 ft | 359 kts | 329° |
| 2026-05-04 05:10 | 30.46338 | 119.98774 | 15808 ft | 363 kts | 329° |
| 2026-05-04 05:10 | 30.48554 | 119.97372 | 16392 ft | 367 kts | 329° |
| 2026-05-04 05:10 | 30.50825 | 119.95934 | 16981 ft | 371 kts | 329° |
| 2026-05-04 05:10 | 30.53092 | 119.94496 | 17570 ft | 374 kts | 328° |
| 2026-05-04 05:11 | 30.55378 | 119.93045 | 18186 ft | 377 kts | 328° |
| 2026-05-04 05:11 | 30.57663 | 119.91596 | 18738 ft | 381 kts | 328° |
| 2026-05-04 05:11 | 30.60003 | 119.90114 | 19301 ft | 385 kts | 327° |
| 2026-05-04 05:11 | 30.62433 | 119.88753 | 19804 ft | 394 kts | 337° |
| 2026-05-04 05:12 | 30.65177 | 119.88191 | 20292 ft | 409 kts | 353° |
| 2026-05-04 05:12 | 30.68036 | 119.88551 | 20782 ft | 423 kts | 8° |
| 2026-05-04 05:12 | 30.70908 | 119.89433 | 21270 ft | 428 kts | 9° |
| 2026-05-04 05:12 | 30.73796 | 119.90215 | 21624 ft | 427 kts | 359° |
| 2026-05-04 05:13 | 30.76707 | 119.89954 | 21949 ft | 414 kts | 337° |
| 2026-05-04 05:13 | 30.79285 | 119.88596 | 22423 ft | 400 kts | 319° |
| 2026-05-04 05:13 | 30.81467 | 119.86690 | 22925 ft | 398 kts | 315° |
| 2026-05-04 05:13 | 30.83705 | 119.84725 | 23391 ft | 401 kts | 315° |
| 2026-05-04 05:14 | 30.85953 | 119.82770 | 23841 ft | 405 kts | 316° |
| 2026-05-04 05:14 | 30.88210 | 119.80814 | 24090 ft | 413 kts | 316° |
| 2026-05-04 05:14 | 30.90535 | 119.78803 | 24435 ft | 418 kts | 316° |
| 2026-05-04 05:14 | 30.92863 | 119.76798 | 24849 ft | 420 kts | 316° |
| 2026-05-04 05:15 | 30.95233 | 119.74755 | 25288 ft | 423 kts | 316° |
| 2026-05-04 05:15 | 30.97587 | 119.72726 | 25665 ft | 425 kts | 315° |
| 2026-05-04 05:15 | 30.99996 | 119.70651 | 26056 ft | 428 kts | 315° |
| 2026-05-04 05:15 | 31.02379 | 119.68594 | 26479 ft | 430 kts | 315° |
| 2026-05-04 05:16 | 31.04773 | 119.66525 | 26834 ft | 432 kts | 315° |
| 2026-05-04 05:16 | 31.07193 | 119.64442 | 27225 ft | 434 kts | 315° |
| 2026-05-04 05:16 | 31.09626 | 119.62329 | 27537 ft | 436 kts | 314° |
| 2026-05-04 05:16 | 31.12052 | 119.60218 | 27863 ft | 438 kts | 314° |
| 2026-05-04 05:17 | 31.14522 | 119.58068 | 28223 ft | 440 kts | 314° |
| 2026-05-04 05:17 | 31.16974 | 119.55940 | 28530 ft | 443 kts | 314° |
| 2026-05-04 05:17 | 31.19442 | 119.53799 | 28874 ft | 445 kts | 314° |
| 2026-05-04 05:17 | 31.21923 | 119.51654 | 29338 ft | 442 kts | 314° |
| 2026-05-04 05:18 | 31.24385 | 119.49526 | 29864 ft | 439 kts | 314° |
| 2026-05-04 05:18 | 31.26812 | 119.47424 | 30349 ft | 437 kts | 313° |
| 2026-05-04 05:18 | 31.29246 | 119.45311 | 30736 ft | 436 kts | 313° |
| 2026-05-04 05:18 | 31.31678 | 119.43192 | 31091 ft | 436 kts | 313° |
| 2026-05-04 05:19 | 31.34101 | 119.41081 | 31479 ft | 435 kts | 313° |
| 2026-05-04 05:19 | 31.36547 | 119.38955 | 31889 ft | 434 kts | 313° |
| 2026-05-04 05:19 | 31.38955 | 119.36857 | 32302 ft | 432 kts | 313° |
| 2026-05-04 05:19 | 31.41338 | 119.34779 | 32662 ft | 431 kts | 312° |
| 2026-05-04 05:20 | 31.43759 | 119.32663 | 33039 ft | 430 kts | 312° |
| 2026-05-04 05:20 | 31.46125 | 119.30597 | 33433 ft | 429 kts | 312° |
| 2026-05-04 05:20 | 31.48516 | 119.28505 | 33745 ft | 428 kts | 312° |
| 2026-05-04 05:20 | 31.50915 | 119.26406 | 34083 ft | 427 kts | 312° |
| 2026-05-04 05:21 | 31.53286 | 119.24332 | 34420 ft | 426 kts | 312° |
| 2026-05-04 05:21 | 31.55639 | 119.22273 | 34703 ft | 425 kts | 312° |
| 2026-05-04 05:21 | 31.57993 | 119.20197 | 34970 ft | 425 kts | 311° |
| 2026-05-04 05:21 | 31.60362 | 119.18095 | 35249 ft | 424 kts | 311° |
| 2026-05-04 05:22 | 31.62696 | 119.16020 | 35505 ft | 424 kts | 311° |
| 2026-05-04 05:22 | 31.64990 | 119.13882 | 35733 ft | 420 kts | 309° |
| 2026-05-04 05:22 | 31.67202 | 119.11640 | 35954 ft | 419 kts | 308° |
| 2026-05-04 05:22 | 31.69407 | 119.09370 | 36134 ft | 420 kts | 308° |
| 2026-05-04 05:23 | 31.73805 | 119.04864 | 36086 ft | 422 kts | 308° |
| 2026-05-04 05:23 | 31.75923 | 119.02530 | 36261 ft | 417 kts | 304° |
| 2026-05-04 05:23 | 31.77837 | 119.00030 | 36227 ft | 410 kts | 300° |
| 2026-05-04 05:24 | 31.81059 | 118.94605 | 36066 ft | 400 kts | 291° |
| 2026-05-04 05:24 | 31.82253 | 118.91703 | 36170 ft | 394 kts | 285° |
| 2026-05-04 05:24 | 31.83126 | 118.88680 | 36136 ft | 390 kts | 279° |
| 2026-05-04 05:25 | 31.83675 | 118.85609 | 36299 ft | 387 kts | 274° |
| 2026-05-04 05:25 | 31.83911 | 118.82452 | 36243 ft | 382 kts | 268° |
| 2026-05-04 05:25 | 31.83591 | 118.76266 | 36225 ft | 379 kts | 263° |
| 2026-05-04 05:26 | 31.83083 | 118.70127 | 36204 ft | 381 kts | 263° |
| 2026-05-04 05:26 | 31.82818 | 118.67011 | 35970 ft | 381 kts | 263° |
| 2026-05-04 05:26 | 31.82551 | 118.63946 | 36241 ft | 382 kts | 263° |
| 2026-05-04 05:28 | 31.80287 | 118.39185 | 36156 ft | 380 kts | 261° |
| 2026-05-04 05:29 | 31.79284 | 118.33094 | 36151 ft | 382 kts | 256° |
| 2026-05-04 05:29 | 31.77838 | 118.27113 | 36154 ft | 382 kts | 252° |
| 2026-05-04 05:31 | 31.70451 | 118.03768 | 36159 ft | 382 kts | 257° |
| 2026-05-04 05:32 | 31.69195 | 117.97719 | 36144 ft | 383 kts | 257° |
| 2026-05-04 05:33 | 31.67310 | 117.88652 | 36150 ft | 383 kts | 256° |
| 2026-05-04 05:33 | 31.66055 | 117.82591 | 36155 ft | 383 kts | 256° |
| 2026-05-04 05:34 | 31.64797 | 117.76541 | 36143 ft | 384 kts | 257° |
| 2026-05-04 05:34 | 31.63533 | 117.70467 | 36149 ft | 384 kts | 257° |
| 2026-05-04 05:35 | 31.62264 | 117.64378 | 36143 ft | 384 kts | 257° |
| 2026-05-04 05:35 | 31.60995 | 117.58308 | 36146 ft | 385 kts | 257° |
| 2026-05-04 05:36 | 31.59897 | 117.52215 | 36147 ft | 383 kts | 258° |
| 2026-05-04 05:36 | 31.58805 | 117.46085 | 36146 ft | 383 kts | 258° |
| 2026-05-04 05:37 | 31.57713 | 117.39981 | 36148 ft | 385 kts | 258° |
| 2026-05-04 05:37 | 31.56624 | 117.33884 | 36141 ft | 383 kts | 258° |
| 2026-05-04 05:38 | 31.54994 | 117.24739 | 36139 ft | 385 kts | 258° |
| 2026-05-04 05:38 | 31.53909 | 117.18584 | 36137 ft | 384 kts | 258° |
| 2026-05-04 05:39 | 31.52283 | 117.09409 | 36141 ft | 385 kts | 258° |
| 2026-05-04 05:40 | 31.50655 | 117.00281 | 36140 ft | 385 kts | 258° |
| 2026-05-04 05:40 | 31.49483 | 116.94121 | 36136 ft | 386 kts | 256° |
| 2026-05-04 05:41 | 31.47801 | 116.88155 | 36142 ft | 388 kts | 250° |
| 2026-05-04 05:41 | 31.45557 | 116.82437 | 36144 ft | 389 kts | 245° |
| 2026-05-04 05:42 | 31.42757 | 116.77005 | 36149 ft | 392 kts | 240° |
| 2026-05-04 05:42 | 31.39515 | 116.71883 | 36151 ft | 393 kts | 237° |
| 2026-05-04 05:43 | 31.36201 | 116.66801 | 36158 ft | 392 kts | 237° |
| 2026-05-04 05:45 | 31.22990 | 116.46648 | 36205 ft | 390 kts | 238° |
| 2026-05-04 05:47 | 31.09726 | 116.26517 | 36227 ft | 391 kts | 237° |
| 2026-05-04 05:47 | 31.06407 | 116.21497 | 36234 ft | 392 kts | 237° |
| 2026-05-04 05:48 | 31.03095 | 116.16496 | 36234 ft | 391 kts | 237° |
| 2026-05-04 05:48 | 30.99753 | 116.11456 | 36208 ft | 391 kts | 237° |
| 2026-05-04 05:49 | 30.96447 | 116.06473 | 36247 ft | 391 kts | 237° |
| 2026-05-04 05:49 | 30.93133 | 116.01488 | 36223 ft | 390 kts | 237° |
| 2026-05-04 05:51 | 30.79851 | 115.81478 | 36196 ft | 391 kts | 238° |
| 2026-05-04 05:52 | 30.76547 | 115.76466 | 36177 ft | 392 kts | 238° |
| 2026-05-04 05:52 | 30.73244 | 115.71461 | 36172 ft | 391 kts | 237° |
| 2026-05-04 05:54 | 30.60000 | 115.51464 | 36175 ft | 391 kts | 238° |
| 2026-05-04 05:55 | 30.56695 | 115.46492 | 36175 ft | 391 kts | 237° |
| 2026-05-04 05:55 | 30.53387 | 115.41518 | 36174 ft | 391 kts | 238° |
| 2026-05-04 05:56 | 30.50072 | 115.36540 | 36186 ft | 390 kts | 238° |
| 2026-05-04 05:56 | 30.47293 | 115.31192 | 36142 ft | 386 kts | 248° |
| 2026-05-04 05:57 | 30.45515 | 115.25406 | 36181 ft | 382 kts | 257° |
| 2026-05-04 05:57 | 30.44736 | 115.19323 | 36198 ft | 384 kts | 266° |
| 2026-05-04 05:58 | 30.44980 | 115.13139 | 36216 ft | 387 kts | 273° |
| 2026-05-04 05:58 | 30.45577 | 115.06986 | 36205 ft | 385 kts | 274° |
| 2026-05-04 05:59 | 30.46198 | 115.00811 | 36239 ft | 386 kts | 274° |
| 2026-05-04 05:59 | 30.46828 | 114.94640 | 36222 ft | 386 kts | 274° |
| 2026-05-04 06:00 | 30.47454 | 114.88481 | 36215 ft | 386 kts | 274° |
| 2026-05-04 06:00 | 30.48078 | 114.82347 | 36181 ft | 387 kts | 274° |
| 2026-05-04 06:01 | 30.48702 | 114.76180 | 36221 ft | 387 kts | 274° |
| 2026-05-04 06:03 | 30.51180 | 114.51447 | 36164 ft | 388 kts | 274° |
| 2026-05-04 06:05 | 30.53918 | 114.23518 | 36153 ft | 388 kts | 274° |
| 2026-05-04 06:06 | 30.54511 | 114.17340 | 36235 ft | 389 kts | 274° |
| 2026-05-04 06:06 | 30.55097 | 114.11144 | 36106 ft | 388 kts | 274° |
| 2026-05-04 06:06 | 30.55400 | 114.08001 | 36236 ft | 389 kts | 274° |
| 2026-05-04 06:07 | 30.55701 | 114.04916 | 36117 ft | 389 kts | 274° |
| 2026-05-04 06:07 | 30.56296 | 113.98680 | 36188 ft | 389 kts | 274° |
| 2026-05-04 06:08 | 30.56713 | 113.92454 | 36176 ft | 389 kts | 269° |
| 2026-05-04 06:08 | 30.56263 | 113.86234 | 36152 ft | 388 kts | 261° |
| 2026-05-04 06:09 | 30.54908 | 113.80198 | 36168 ft | 390 kts | 253° |
| 2026-05-04 06:11 | 30.43870 | 113.58365 | 36169 ft | 394 kts | 242° |
| 2026-05-04 06:13 | 30.31959 | 113.36993 | 36130 ft | 396 kts | 242° |
| 2026-05-04 06:14 | 30.22991 | 113.20988 | 36271 ft | 397 kts | 242° |
| 2026-05-04 06:14 | 30.21495 | 113.18322 | 36067 ft | 397 kts | 242° |
| 2026-05-04 06:15 | 30.18538 | 113.12957 | 36265 ft | 395 kts | 242° |
| 2026-05-04 06:15 | 30.17062 | 113.10271 | 36149 ft | 394 kts | 242° |
| 2026-05-04 06:15 | 30.15600 | 113.07616 | 36133 ft | 395 kts | 242° |
| 2026-05-04 06:16 | 30.12664 | 113.02289 | 36095 ft | 395 kts | 243° |
| 2026-05-04 06:16 | 30.09709 | 112.96929 | 36268 ft | 396 kts | 242° |
| 2026-05-04 06:17 | 30.06768 | 112.91611 | 36257 ft | 395 kts | 243° |
| 2026-05-04 06:17 | 30.05275 | 112.88908 | 36109 ft | 395 kts | 242° |
| 2026-05-04 06:17 | 30.03804 | 112.86252 | 36126 ft | 396 kts | 242° |
| 2026-05-04 06:18 | 30.00840 | 112.80904 | 36117 ft | 395 kts | 242° |
| 2026-05-04 06:20 | 29.88990 | 112.59597 | 36181 ft | 394 kts | 242° |
| 2026-05-04 06:21 | 29.81562 | 112.46292 | 36162 ft | 394 kts | 243° |
| 2026-05-04 06:22 | 29.78599 | 112.40997 | 35977 ft | 394 kts | 243° |
| 2026-05-04 06:22 | 29.77098 | 112.38319 | 36170 ft | 395 kts | 242° |
| 2026-05-04 06:25 | 29.57687 | 112.03997 | 36128 ft | 395 kts | 242° |
| 2026-05-04 06:26 | 29.54663 | 111.98677 | 36146 ft | 394 kts | 242° |
| 2026-05-04 06:26 | 29.51717 | 111.93503 | 36142 ft | 395 kts | 242° |
| 2026-05-04 06:27 | 29.44195 | 111.80326 | 36134 ft | 396 kts | 242° |
| 2026-05-04 06:28 | 29.41178 | 111.75054 | 36140 ft | 396 kts | 242° |
| 2026-05-04 06:28 | 29.38164 | 111.69766 | 36147 ft | 395 kts | 243° |
| 2026-05-04 06:29 | 29.35476 | 111.64334 | 36142 ft | 391 kts | 248° |
| 2026-05-04 06:29 | 29.33216 | 111.58665 | 36154 ft | 389 kts | 252° |
| 2026-05-04 06:30 | 29.31213 | 111.52933 | 36140 ft | 390 kts | 252° |
| 2026-05-04 06:30 | 29.29193 | 111.47156 | 36156 ft | 390 kts | 252° |
| 2026-05-04 06:31 | 29.27192 | 111.41426 | 36146 ft | 390 kts | 252° |
| 2026-05-04 06:31 | 29.25171 | 111.35637 | 36160 ft | 390 kts | 251° |
| 2026-05-04 06:33 | 29.17117 | 111.12642 | 36170 ft | 390 kts | 251° |
| 2026-05-04 06:34 | 29.15094 | 111.06889 | 36171 ft | 390 kts | 251° |
| 2026-05-04 06:34 | 29.13075 | 111.01157 | 36192 ft | 389 kts | 251° |
| 2026-05-04 06:36 | 29.04949 | 110.78177 | 36178 ft | 390 kts | 252° |
| 2026-05-04 06:37 | 29.02921 | 110.72456 | 36185 ft | 390 kts | 251° |
| 2026-05-04 06:37 | 29.00895 | 110.66677 | 36185 ft | 391 kts | 252° |
| 2026-05-04 06:38 | 28.98880 | 110.60917 | 36195 ft | 390 kts | 252° |
| 2026-05-04 06:40 | 28.90788 | 110.37888 | 36210 ft | 391 kts | 252° |
| 2026-05-04 06:40 | 28.88748 | 110.32115 | 36209 ft | 391 kts | 252° |
| 2026-05-04 06:41 | 28.86714 | 110.26358 | 36204 ft | 392 kts | 252° |
| 2026-05-04 06:41 | 28.84681 | 110.20618 | 36214 ft | 392 kts | 252° |
| 2026-05-04 06:42 | 28.82635 | 110.14850 | 36206 ft | 392 kts | 252° |
| 2026-05-04 06:44 | 28.74432 | 109.91811 | 36212 ft | 392 kts | 252° |
| 2026-05-04 06:44 | 28.72357 | 109.86008 | 36216 ft | 393 kts | 252° |
| 2026-05-04 06:45 | 28.70307 | 109.80282 | 36206 ft | 393 kts | 252° |
| 2026-05-04 06:45 | 28.68230 | 109.74490 | 36201 ft | 393 kts | 252° |
| 2026-05-04 06:46 | 28.66174 | 109.68769 | 36189 ft | 393 kts | 252° |
| 2026-05-04 06:46 | 28.64139 | 109.62994 | 36192 ft | 393 kts | 253° |
| 2026-05-04 06:48 | 28.55750 | 109.39941 | 36207 ft | 397 kts | 249° |
| 2026-05-04 06:50 | 28.45874 | 109.17441 | 36201 ft | 399 kts | 249° |
| 2026-05-04 06:51 | 28.43394 | 109.11822 | 36207 ft | 398 kts | 248° |
| 2026-05-04 06:51 | 28.40896 | 109.06197 | 36210 ft | 399 kts | 249° |
| 2026-05-04 06:52 | 28.38397 | 109.00568 | 36215 ft | 399 kts | 248° |
| 2026-05-04 06:52 | 28.35892 | 108.94937 | 36216 ft | 399 kts | 249° |
| 2026-05-04 06:53 | 28.33382 | 108.89298 | 36223 ft | 399 kts | 249° |
| 2026-05-04 06:53 | 28.30877 | 108.83678 | 36236 ft | 400 kts | 248° |
| 2026-05-04 06:54 | 28.28361 | 108.78046 | 36236 ft | 399 kts | 249° |
| 2026-05-04 06:54 | 28.25855 | 108.72437 | 36240 ft | 399 kts | 248° |
| 2026-05-04 06:55 | 28.23345 | 108.66835 | 36242 ft | 400 kts | 249° |
| 2026-05-04 06:55 | 28.20819 | 108.61199 | 36243 ft | 400 kts | 249° |
| 2026-05-04 06:57 | 28.10706 | 108.38720 | 36233 ft | 400 kts | 249° |
| 2026-05-04 06:58 | 28.08157 | 108.33073 | 36236 ft | 401 kts | 248° |
| 2026-05-04 06:58 | 28.05630 | 108.27486 | 36237 ft | 401 kts | 248° |
| 2026-05-04 06:59 | 28.03084 | 108.21856 | 36239 ft | 401 kts | 248° |
| 2026-05-04 06:59 | 28.00539 | 108.16242 | 36239 ft | 402 kts | 248° |
| 2026-05-04 07:01 | 27.90301 | 107.93730 | 36252 ft | 402 kts | 249° |
| 2026-05-04 07:02 | 27.87734 | 107.88103 | 36261 ft | 403 kts | 249° |
| 2026-05-04 07:02 | 27.85167 | 107.82482 | 36263 ft | 402 kts | 248° |
| 2026-05-04 07:03 | 27.82593 | 107.76861 | 36273 ft | 403 kts | 249° |
| 2026-05-04 07:03 | 27.80066 | 107.71202 | 36274 ft | 404 kts | 249° |
| 2026-05-04 07:04 | 27.77534 | 107.65511 | 36272 ft | 404 kts | 249° |
| 2026-05-04 07:04 | 27.75015 | 107.59872 | 36272 ft | 404 kts | 249° |
| 2026-05-04 07:05 | 27.72475 | 107.54194 | 36275 ft | 405 kts | 249° |
| 2026-05-04 07:05 | 27.69921 | 107.48489 | 36266 ft | 406 kts | 249° |
| 2026-05-04 07:06 | 27.66097 | 107.39968 | 36271 ft | 406 kts | 249° |
| 2026-05-04 07:07 | 27.63546 | 107.34298 | 36271 ft | 405 kts | 249° |
| 2026-05-04 07:09 | 27.53306 | 107.11574 | 36275 ft | 408 kts | 248° |
| 2026-05-04 07:09 | 27.50727 | 107.05864 | 36287 ft | 410 kts | 248° |
| 2026-05-04 07:10 | 27.48125 | 107.00123 | 36290 ft | 410 kts | 249° |
| 2026-05-04 07:12 | 27.37881 | 106.77231 | 36282 ft | 411 kts | 249° |
| 2026-05-04 07:12 | 27.35304 | 106.71501 | 36285 ft | 412 kts | 249° |
| 2026-05-04 07:13 | 27.32712 | 106.65770 | 36290 ft | 411 kts | 249° |
| 2026-05-04 07:13 | 27.30121 | 106.60036 | 36282 ft | 412 kts | 249° |
| 2026-05-04 07:14 | 27.23620 | 106.45694 | 36300 ft | 413 kts | 249° |
| 2026-05-04 07:15 | 27.21013 | 106.39957 | 36303 ft | 413 kts | 249° |
| 2026-05-04 07:15 | 27.18386 | 106.34184 | 36315 ft | 414 kts | 248° |
| 2026-05-04 07:16 | 27.15759 | 106.28408 | 36317 ft | 415 kts | 248° |
| 2026-05-04 07:16 | 27.13132 | 106.22638 | 36322 ft | 415 kts | 248° |
| 2026-05-04 07:17 | 27.10507 | 106.16885 | 36322 ft | 416 kts | 248° |
| 2026-05-04 07:17 | 27.07876 | 106.11125 | 36323 ft | 416 kts | 249° |
| 2026-05-04 07:18 | 27.05511 | 106.05253 | 36325 ft | 412 kts | 253° |
| 2026-05-04 07:18 | 27.03651 | 105.99213 | 36324 ft | 409 kts | 258° |
| 2026-05-04 07:19 | 27.02292 | 105.93036 | 36327 ft | 409 kts | 261° |
| 2026-05-04 07:19 | 27.01093 | 105.86800 | 36329 ft | 407 kts | 261° |
| 2026-05-04 07:20 | 26.99905 | 105.80590 | 36334 ft | 408 kts | 262° |
| 2026-05-04 07:20 | 26.98719 | 105.74383 | 36338 ft | 409 kts | 261° |
| 2026-05-04 07:22 | 26.93930 | 105.49468 | 36353 ft | 410 kts | 262° |
| 2026-05-04 07:23 | 26.92729 | 105.43246 | 36353 ft | 410 kts | 261° |
| 2026-05-04 07:23 | 26.91520 | 105.37016 | 36349 ft | 409 kts | 262° |
| 2026-05-04 07:24 | 26.90316 | 105.30815 | 36354 ft | 410 kts | 261° |
| 2026-05-04 07:24 | 26.89104 | 105.24585 | 36352 ft | 410 kts | 261° |
| 2026-05-04 07:26 | 26.84223 | 104.99676 | 36363 ft | 411 kts | 261° |
| 2026-05-04 07:27 | 26.82994 | 104.93438 | 36359 ft | 411 kts | 261° |
| 2026-05-04 07:27 | 26.81762 | 104.87205 | 36368 ft | 411 kts | 261° |
| 2026-05-04 07:28 | 26.80515 | 104.80942 | 36371 ft | 412 kts | 261° |
| 2026-05-04 07:28 | 26.79265 | 104.74713 | 36375 ft | 412 kts | 261° |
| 2026-05-04 07:29 | 26.77690 | 104.68563 | 36379 ft | 416 kts | 253° |
| 2026-05-04 07:29 | 26.75103 | 104.62698 | 36384 ft | 424 kts | 244° |
| 2026-05-04 07:30 | 26.71537 | 104.57362 | 36375 ft | 434 kts | 234° |
| 2026-05-04 07:30 | 26.69411 | 104.54960 | 36152 ft | 439 kts | 230° |
| 2026-05-04 07:30 | 26.67105 | 104.52762 | 35903 ft | 438 kts | 227° |
| 2026-05-04 07:31 | 26.64758 | 104.50614 | 35658 ft | 436 kts | 227° |
| 2026-05-04 07:31 | 26.62398 | 104.48470 | 35386 ft | 433 kts | 227° |
| 2026-05-04 07:33 | 26.46198 | 104.33783 | 33269 ft | 430 kts | 226° |
| 2026-05-04 07:33 | 26.43862 | 104.31669 | 32729 ft | 430 kts | 226° |
| 2026-05-04 07:33 | 26.41559 | 104.29585 | 32229 ft | 431 kts | 226° |
| 2026-05-04 07:33 | 26.39228 | 104.27477 | 31694 ft | 431 kts | 225° |
| 2026-05-04 07:34 | 26.36882 | 104.25357 | 31149 ft | 431 kts | 225° |
| 2026-05-04 07:34 | 26.34560 | 104.23260 | 30581 ft | 432 kts | 225° |
| 2026-05-04 07:34 | 26.32237 | 104.21163 | 30063 ft | 432 kts | 225° |
| 2026-05-04 07:34 | 26.29909 | 104.19062 | 29547 ft | 431 kts | 225° |
| 2026-05-04 07:35 | 26.27564 | 104.16949 | 28987 ft | 431 kts | 225° |
| 2026-05-04 07:35 | 26.25244 | 104.14860 | 28439 ft | 429 kts | 224° |
| 2026-05-04 07:35 | 26.22938 | 104.12788 | 27981 ft | 426 kts | 224° |
| 2026-05-04 07:35 | 26.20644 | 104.10724 | 27429 ft | 424 kts | 224° |
| 2026-05-04 07:36 | 26.18353 | 104.08659 | 26908 ft | 423 kts | 224° |
| 2026-05-04 07:36 | 26.16082 | 104.06619 | 26432 ft | 420 kts | 224° |
| 2026-05-04 07:38 | 26.00630 | 103.92750 | 23469 ft | 398 kts | 224° |
| 2026-05-04 07:38 | 25.98596 | 103.90705 | 23066 ft | 392 kts | 229° |
| 2026-05-04 07:38 | 25.96754 | 103.88483 | 22664 ft | 387 kts | 234° |
| 2026-05-04 07:38 | 25.95147 | 103.86159 | 22268 ft | 384 kts | 238° |
| 2026-05-04 07:39 | 25.93628 | 103.83724 | 21839 ft | 383 kts | 239° |
| 2026-05-04 07:39 | 25.92133 | 103.81295 | 21409 ft | 381 kts | 239° |
| 2026-05-04 07:39 | 25.90637 | 103.78866 | 21009 ft | 380 kts | 239° |
| 2026-05-04 07:39 | 25.89091 | 103.76480 | 20604 ft | 380 kts | 234° |
| 2026-05-04 07:40 | 25.87329 | 103.74314 | 20180 ft | 382 kts | 229° |
| 2026-05-04 07:40 | 25.85327 | 103.72352 | 19779 ft | 384 kts | 223° |
| 2026-05-04 07:40 | 25.83186 | 103.70591 | 19348 ft | 384 kts | 220° |
| 2026-05-04 07:40 | 25.81009 | 103.68859 | 18930 ft | 383 kts | 220° |
| 2026-05-04 07:41 | 25.78842 | 103.67145 | 18524 ft | 381 kts | 220° |
| 2026-05-04 07:41 | 25.76703 | 103.65449 | 18147 ft | 379 kts | 220° |
| 2026-05-04 07:41 | 25.74559 | 103.63748 | 17743 ft | 378 kts | 220° |
| 2026-05-04 07:41 | 25.72421 | 103.62050 | 17350 ft | 376 kts | 220° |
| 2026-05-04 07:42 | 25.70309 | 103.60377 | 16943 ft | 375 kts | 220° |
| 2026-05-04 07:42 | 25.68201 | 103.58710 | 16537 ft | 374 kts | 220° |
| 2026-05-04 07:42 | 25.66078 | 103.57033 | 16147 ft | 372 kts | 220° |
| 2026-05-04 07:42 | 25.63982 | 103.55377 | 15759 ft | 370 kts | 219° |
| 2026-05-04 07:43 | 25.61868 | 103.53708 | 15347 ft | 369 kts | 219° |
| 2026-05-04 07:43 | 25.59776 | 103.52056 | 14948 ft | 368 kts | 219° |
| 2026-05-04 07:43 | 25.57699 | 103.50417 | 14545 ft | 366 kts | 219° |
| 2026-05-04 07:43 | 25.55629 | 103.48785 | 14135 ft | 365 kts | 219° |
| 2026-05-04 07:44 | 25.53585 | 103.47174 | 13735 ft | 364 kts | 219° |
| 2026-05-04 07:44 | 25.51542 | 103.45566 | 13263 ft | 349 kts | 219° |
| 2026-05-04 07:44 | 25.49618 | 103.44056 | 13002 ft | 327 kts | 219° |
| 2026-05-04 07:44 | 25.47829 | 103.42651 | 12957 ft | 301 kts | 219° |
| 2026-05-04 07:45 | 25.46180 | 103.41357 | 12925 ft | 288 kts | 219° |
| 2026-05-04 07:45 | 25.44546 | 103.40067 | 12903 ft | 285 kts | 219° |
| 2026-05-04 07:45 | 25.42978 | 103.38830 | 12853 ft | 275 kts | 220° |
| 2026-05-04 07:45 | 25.41446 | 103.37624 | 12741 ft | 261 kts | 220° |
| 2026-05-04 07:46 | 25.40019 | 103.36507 | 12712 ft | 240 kts | 220° |
| 2026-05-04 07:46 | 25.38710 | 103.35481 | 12700 ft | 225 kts | 220° |
| 2026-05-04 07:46 | 25.37439 | 103.34479 | 12699 ft | 223 kts | 220° |
| 2026-05-04 07:46 | 25.36219 | 103.33521 | 12696 ft | 207 kts | 220° |
| 2026-05-04 07:47 | 25.35085 | 103.32631 | 12650 ft | 195 kts | 221° |
| 2026-05-04 07:47 | 25.33971 | 103.31747 | 12633 ft | 194 kts | 225° |
| 2026-05-04 07:47 | 25.33135 | 103.30621 | 12580 ft | 188 kts | 248° |
| 2026-05-04 07:49 | 25.36684 | 103.22349 | 11292 ft | 168 kts | 306° |
| 2026-05-04 07:49 | 25.37374 | 103.21300 | 11109 ft | 168 kts | 295° |
| 2026-05-04 07:49 | 25.37695 | 103.20087 | 10920 ft | 168 kts | 274° |
| 2026-05-04 07:50 | 25.37434 | 103.18842 | 10729 ft | 168 kts | 246° |
| 2026-05-04 07:50 | 25.36797 | 103.17748 | 10536 ft | 167 kts | 233° |
| 2026-05-04 07:50 | 25.36009 | 103.16822 | 10349 ft | 166 kts | 226° |
| 2026-05-04 07:50 | 25.35156 | 103.15981 | 10191 ft | 165 kts | 223° |
| 2026-05-04 07:51 | 25.34277 | 103.15163 | 10041 ft | 165 kts | 222° |
| 2026-05-04 07:51 | 25.33392 | 103.14359 | 9896 ft | 164 kts | 222° |
| 2026-05-04 07:51 | 25.32505 | 103.13564 | 9867 ft | 163 kts | 221° |
| 2026-05-04 07:51 | 25.31618 | 103.12779 | 9864 ft | 163 kts | 221° |
| 2026-05-04 07:52 | 25.30719 | 103.11990 | 9860 ft | 163 kts | 221° |
| 2026-05-04 07:52 | 25.29828 | 103.11212 | 9853 ft | 163 kts | 221° |
| 2026-05-04 07:52 | 25.28928 | 103.10429 | 9858 ft | 163 kts | 220° |
| 2026-05-04 07:52 | 25.28040 | 103.09658 | 9873 ft | 163 kts | 221° |
| 2026-05-04 07:53 | 25.27142 | 103.08880 | 9888 ft | 163 kts | 220° |
| 2026-05-04 07:54 | 25.20895 | 103.03457 | 9105 ft | 161 kts | 220° |
| 2026-05-04 07:55 | 25.20007 | 103.02683 | 8894 ft | 162 kts | 220° |
| 2026-05-04 07:55 | 25.19122 | 103.01913 | 8691 ft | 163 kts | 220° |
| 2026-05-04 07:55 | 25.18223 | 103.01131 | 8480 ft | 163 kts | 220° |
| 2026-05-04 07:55 | 25.17332 | 103.00370 | 8259 ft | 162 kts | 218° |
| 2026-05-04 07:56 | 25.16432 | 102.99612 | 8031 ft | 162 kts | 220° |
| 2026-05-04 07:56 | 25.15570 | 102.98822 | 7825 ft | 162 kts | 221° |
| 2026-05-04 07:56 | 25.14680 | 102.98036 | 7617 ft | 162 kts | 219° |
| 2026-05-04 07:56 | 25.13790 | 102.97278 | 7433 ft | 162 kts | 219° |
| 2026-05-04 07:57 | 25.12896 | 102.96505 | 7242 ft | 163 kts | 219° |
| 2026-05-04 07:57 | 25.12006 | 102.95726 | 7004 ft | 163 kts | 220° |
| 2026-05-04 07:57 | 25.11139 | 102.94954 | 6917 ft | 150 kts | 216° |
| 2026-05-04 07:57 | 25.10443 | 102.94352 | 6917 ft | 100 kts | 213° |
| 2026-05-04 07:58 | 25.10043 | 102.93964 | 6917 ft | 50 kts | 244° |
| 2026-05-04 07:58 | 25.09997 | 102.93832 | 6917 ft | 8 kts | 269° |
| 2026-05-04 07:58 | 25.10027 | 102.93778 | 6917 ft | 7 kts | 327° |
| 2026-05-04 07:58 | 25.10077 | 102.93778 | 6917 ft | 7 kts | 21° |
| 2026-05-04 07:59 | 25.10113 | 102.93815 | 6917 ft | 7 kts | 49° |
| 2026-05-04 07:59 | 25.10150 | 102.93858 | 6917 ft | 8 kts | 42° |
| 2026-05-04 07:59 | 25.10212 | 102.93913 | 6917 ft | 15 kts | 36° |
| 2026-05-04 07:59 | 25.10313 | 102.94003 | 6917 ft | 19 kts | 39° |
| 2026-05-04 08:00 | 25.10420 | 102.94094 | 6917 ft | 20 kts | 39° |
| 2026-05-04 08:00 | 25.10535 | 102.94194 | 6917 ft | 20 kts | 35° |
| 2026-05-04 08:00 | 25.10618 | 102.94182 | 6917 ft | 11 kts | 304° |
| 2026-05-04 08:02 | 25.10888 | 102.93977 | 6917 ft | 0 kts | 38° |